Time;durP1;ratioP1;P1;durP2;ratioP2;P2;SDS_P1;SDS_P2;PMS_P1;PMS_P2;Temp;Humidity;BMP_temperature;BMP_pressure;BME280_temperature;BME280_humidity;BME280_pressure;Samples;Min_cycle;Max_cycle;Signal;HPM_P1;HPM_P2
2022/10/25 00:01:47;;;;;;;;;13.00;10.25;;;;;22.19;50.95;101042.56;5082693;28;45432;-57
2022/10/25 00:04:13;;;;;;;;;9.25;9.00;;;;;22.19;51.14;101045.19;5080049;28;45317;-56
2022/10/25 00:06:38;;;;;;;;;10.50;8.50;;;;;22.18;51.08;101047.00;5076642;28;45385;-56
2022/10/25 00:09:03;;;;;;;;;13.00;10.00;;;;;22.18;50.94;101054.06;5075728;27;45385;-56
2022/10/25 00:11:30;;;;;;;;;10.50;9.50;;;;;22.19;51.08;101061.91;5076425;28;45552;-56
2022/10/25 00:13:58;;;;;;;;;10.25;9.00;;;;;22.18;51.15;101057.56;5076411;28;45309;-56
2022/10/25 00:16:29;;;;;;;;;10.50;10.50;;;;;22.18;50.97;101054.94;5076203;28;46434;-56
2022/10/25 00:18:55;;;;;;;;;15.75;10.00;;;;;22.17;51.23;101053.22;5075939;28;45334;-55
2022/10/25 00:21:21;;;;;;;;;12.00;9.00;;;;;22.17;50.87;101055.88;5076467;28;45339;-56
2022/10/25 00:23:47;;;;;;;;;10.25;9.00;;;;;22.17;51.05;101053.22;5075054;28;45491;-56
2022/10/25 00:26:13;;;;;;;;;13.25;10.00;;;;;22.18;51.16;101049.66;5075829;28;46530;-55
2022/10/25 00:28:39;;;;;;;;;8.00;8.00;;;;;22.17;50.53;101047.94;5078529;28;45322;-56
2022/10/25 00:31:07;;;;;;;;;10.00;8.00;;;;;22.17;50.93;101047.94;5083642;28;45325;-55
2022/10/25 00:33:34;;;;;;;;;10.00;9.00;;;;;22.17;50.81;101047.94;5078246;27;45450;-56
2022/10/25 00:36:21;;;;;;;;;11.25;8.75;;;;;22.17;51.28;101040.03;5096033;28;46470;-56
2022/10/25 00:38:47;;;;;;;;;10.25;9.00;;;;;22.17;50.97;101045.31;5076200;28;45267;-56
2022/10/25 00:41:16;;;;;;;;;8.00;7.50;;;;;22.18;50.97;101054.06;5076005;28;45322;-56
2022/10/25 00:43:47;;;;;;;;;11.50;8.00;;;;;22.17;50.95;101047.06;5075975;28;45295;-58
2022/10/25 00:46:24;;;;;;;;;8.50;7.50;;;;;22.15;50.99;101048.97;5076697;28;45739;-57
2022/10/25 00:49:09;;;;;;;;;7.75;7.25;;;;;22.17;51.10;101050.59;5075798;28;45817;-56
2022/10/25 00:51:46;;;;;;;;;10.50;7.00;;;;;22.16;50.83;101054.16;5076678;28;45374;-56
2022/10/25 00:54:19;;;;;;;;;8.00;7.00;;;;;22.17;50.82;101057.63;5078252;28;45376;-56
2022/10/25 00:56:46;;;;;;;;;6.25;6.25;;;;;22.16;50.90;101064.72;5086341;28;46706;-57
2022/10/25 00:59:18;;;;;;;;;7.25;7.25;;;;;22.16;51.01;101064.72;5092205;28;45333;-57
2022/10/25 01:01:43;;;;;;;;;6.00;6.00;;;;;22.18;50.93;101067.25;5081379;28;45375;-57
2022/10/25 01:04:14;;;;;;;;;7.75;5.00;;;;;22.17;50.97;101063.78;5078580;28;45574;-57
2022/10/25 01:06:45;;;;;;;;;7.50;6.50;;;;;22.16;50.91;101069.16;5081684;28;46533;-56
2022/10/25 01:09:18;;;;;;;;;8.50;8.00;;;;;22.17;50.95;101068.19;5082727;28;45333;-56
2022/10/25 01:11:44;;;;;;;;;9.50;7.00;;;;;22.16;50.73;101064.72;5090314;28;45271;-57
2022/10/25 01:14:11;;;;;;;;;7.25;6.00;;;;;22.16;50.58;101067.34;5097082;28;44799;-57
2022/10/25 01:16:50;;;;;;;;;6.25;5.25;;;;;22.16;50.85;101064.72;5097857;28;45477;-55
2022/10/25 01:19:53;;;;;;;;;8.50;6.00;;;;;22.16;50.96;101072.63;5100626;28;45021;-56
2022/10/25 01:22:37;;;;;;;;;6.50;6.25;;;;;22.16;50.95;101067.34;5100403;28;45295;-56
2022/10/25 01:25:23;;;;;;;;;5.50;5.50;;;;;22.16;50.71;101066.53;5097560;28;44920;-56
2022/10/25 01:28:11;;;;;;;;;8.00;6.50;;;;;22.16;50.98;101066.53;5097461;28;45318;-57
2022/10/25 01:31:05;;;;;;;;;8.75;7.00;;;;;22.16;50.70;101075.28;5098507;28;45199;-56
2022/10/25 01:33:52;;;;;;;;;6.75;6.00;;;;;22.15;50.82;101062.19;5091985;28;45340;-57
2022/10/25 01:37:00;;;;;;;;;8.25;4.75;;;;;22.15;50.96;101072.75;5088297;28;45164;-57
2022/10/25 01:39:32;;;;;;;;;6.25;4.75;;;;;22.15;50.79;101070.09;5078165;28;47107;-58
2022/10/25 01:42:07;;;;;;;;;4.75;3.25;;;;;22.14;50.68;101063.97;5088820;28;45222;-57
2022/10/25 01:45:05;;;;;;;;;8.50;5.25;;;;;22.15;50.89;101072.75;5089711;28;45357;-57
2022/10/25 01:47:43;;;;;;;;;7.25;6.00;;;;;22.14;50.80;101063.97;5093935;28;45553;-57
2022/10/25 01:50:17;;;;;;;;;6.75;4.50;;;;;22.14;50.92;101066.59;5090884;28;46703;-57
2022/10/25 01:52:43;;;;;;;;;3.50;3.50;;;;;22.15;50.84;101059.53;5088092;28;45291;-57
2022/10/25 01:55:12;;;;;;;;;7.25;6.00;;;;;22.14;50.63;101056.03;5089235;28;44758;-58
2022/10/25 01:58:00;;;;;;;;;5.50;5.00;;;;;22.15;50.84;101060.38;5086805;28;45432;-57
2022/10/25 02:00:26;;;;;;;;;7.00;3.50;;;;;22.14;50.44;101068.41;5086861;28;46386;-56
2022/10/25 02:03:08;;;;;;;;;4.50;4.25;;;;;22.14;50.76;101063.97;5083339;27;45460;-57
2022/10/25 02:05:46;;;;;;;;;3.75;3.75;;;;;22.14;50.99;101058.69;5079844;28;45300;-57
2022/10/25 02:08:23;;;;;;;;;5.00;5.00;;;;;22.15;50.89;101064.81;5077787;28;45436;-57
2022/10/25 02:11:00;;;;;;;;;3.75;3.00;;;;;22.14;50.80;101058.69;5080595;28;45504;-55
2022/10/25 02:13:51;;;;;;;;;3.50;3.50;;;;;22.13;51.04;101059.63;5078107;28;45295;-57
2022/10/25 02:16:27;;;;;;;;;3.25;3.00;;;;;22.12;51.10;101055.28;5078142;28;45363;-55
2022/10/25 02:19:04;;;;;;;;;4.25;4.00;;;;;22.14;50.58;101063.13;5086250;28;45376;-56
2022/10/25 02:21:32;;;;;;;;;5.50;5.50;;;;;22.13;50.77;101067.53;5094915;28;45452;-56
2022/10/25 02:24:02;;;;;;;;;3.75;3.75;;;;;22.13;50.83;101067.53;5091508;28;45318;-55
2022/10/25 02:26:27;;;;;;;;;4.50;3.50;;;;;22.12;50.78;101068.47;5096908;28;45263;-56
2022/10/25 02:28:53;;;;;;;;;4.50;4.00;;;;;22.13;50.82;101072.81;5097455;28;45321;-57
2022/10/25 02:31:22;;;;;;;;;4.00;3.75;;;;;22.13;50.56;101078.09;5091221;28;46079;-57
2022/10/25 02:33:47;;;;;;;;;6.00;5.00;;;;;22.13;50.89;101072.81;5077279;28;45604;-56
2022/10/25 02:36:14;;;;;;;;;4.00;4.00;;;;;22.13;50.57;101075.44;5078196;28;45434;-57
2022/10/25 02:38:41;;;;;;;;;3.75;3.75;;;;;22.13;51.05;101071.97;5078925;28;45615;-58
2022/10/25 02:41:06;;;;;;;;;6.25;4.25;;;;;22.14;50.72;101087.72;5087069;28;46846;-56
2022/10/25 02:43:32;;;;;;;;;5.00;5.00;;;;;22.13;50.65;101082.53;5078508;28;46038;-56
2022/10/25 02:45:58;;;;;;;;;4.75;3.00;;;;;22.14;50.73;101082.44;5086514;28;45397;-56
2022/10/25 02:48:24;;;;;;;;;5.00;4.00;;;;;22.13;50.59;101088.66;5088986;28;45562;-56
2022/10/25 02:50:49;;;;;;;;;2.00;1.75;;;;;22.12;50.67;101086.94;5084340;28;46481;-57
2022/10/25 02:53:15;;;;;;;;;3.00;3.00;;;;;22.14;50.45;101078.97;5078785;28;58797;-57
2022/10/25 02:55:40;;;;;;;;;6.75;4.75;;;;;22.13;50.58;101079.91;5075856;28;45468;-56
2022/10/25 02:58:05;;;;;;;;;5.00;4.00;;;;;22.12;50.53;101079.03;5077932;28;45292;-55
2022/10/25 03:00:31;;;;;;;;;3.00;3.00;;;;;22.12;50.63;101068.47;5076988;28;52375;-57
2022/10/25 03:02:56;;;;;;;;;2.75;2.75;;;;;22.14;50.77;101068.41;5076836;28;45341;-56
2022/10/25 03:05:21;;;;;;;;;3.50;3.25;;;;;22.12;50.60;101067.63;5077371;28;45202;-56
2022/10/25 03:07:47;;;;;;;;;5.00;4.00;;;;;22.13;50.73;101072.81;5077648;28;45200;-56
2022/10/25 03:10:12;;;;;;;;;4.00;4.00;;;;;22.13;50.77;101075.44;5077182;28;64621;-57
2022/10/25 03:12:37;;;;;;;;;3.75;3.00;;;;;22.11;50.58;101074.69;5082467;28;45328;-57
2022/10/25 03:15:03;;;;;;;;;3.25;3.25;;;;;22.12;50.77;101079.03;5083091;28;45356;-55
2022/10/25 03:17:29;;;;;;;;;3.50;3.50;;;;;22.11;50.74;101073.84;5097306;27;45227;-57
2022/10/25 03:19:54;;;;;;;;;2.75;1.50;;;;;22.13;50.53;101077.25;5090116;28;56672;-56
2022/10/25 03:22:20;;;;;;;;;6.00;3.25;;;;;22.12;50.39;101076.38;5081279;28;49588;-56
2022/10/25 03:24:47;;;;;;;;;4.50;3.50;;;;;22.12;50.72;101076.38;5076959;28;45192;-56
2022/10/25 03:27:13;;;;;;;;;3.00;3.00;;;;;22.13;50.52;101086.00;5076964;28;47491;-56
2022/10/25 03:29:38;;;;;;;;;5.00;3.00;;;;;22.13;50.63;101087.81;5077682;28;45334;-55
2022/10/25 03:32:04;;;;;;;;;2.25;2.25;;;;;22.12;50.75;101083.47;5082255;28;54390;-55
2022/10/25 03:34:29;;;;;;;;;2.25;2.25;;;;;22.12;50.84;101092.22;5098027;28;45846;-56
2022/10/25 03:36:56;;;;;;;;;3.00;3.00;;;;;22.12;50.73;101096.66;5084450;28;45467;-54
2022/10/25 03:39:21;;;;;;;;;4.75;2.50;;;;;22.12;50.59;101102.78;5076561;28;47204;-56
2022/10/25 03:41:47;;;;;;;;;6.50;3.00;;;;;22.12;50.57;101094.88;5076609;28;45251;-56
2022/10/25 03:44:13;;;;;;;;;3.00;3.00;;;;;22.12;50.71;101100.16;5076804;28;45372;-55
2022/10/25 03:46:38;;;;;;;;;3.00;3.00;;;;;22.11;50.65;101101.09;5081048;28;45490;-56
2022/10/25 03:49:03;;;;;;;;;4.67;3.00;;;;;22.11;50.52;101095.81;5078161;28;65311;-57
2022/10/25 03:51:29;;;;;;;;;1.25;1.25;;;;;22.13;50.51;101106.28;5076053;27;57765;-55
2022/10/25 03:53:54;;;;;;;;;3.75;3.00;;;;;22.11;50.59;101109.00;5076720;28;45393;-55
2022/10/25 03:56:19;;;;;;;;;3.75;2.75;;;;;22.12;50.69;101108.06;5077141;28;45587;-56
2022/10/25 03:58:45;;;;;;;;;2.75;2.75;;;;;22.12;50.59;101110.72;5076894;28;46439;-56
2022/10/25 04:01:10;;;;;;;;;3.00;2.00;;;;;22.12;50.65;101107.22;5082672;28;45299;-56
2022/10/25 04:03:36;;;;;;;;;3.75;2.00;;;;;22.13;50.88;101114.22;5090044;28;44674;-55
2022/10/25 04:06:01;;;;;;;;;2.50;2.00;;;;;22.12;50.61;101113.34;5079034;28;45345;-56
2022/10/25 04:08:26;;;;;;;;;3.50;2.25;;;;;22.12;50.58;101112.50;5074931;28;47292;-54
2022/10/25 04:10:51;;;;;;;;;3.25;3.00;;;;;22.11;50.84;101106.38;5075996;28;45286;-56
2022/10/25 04:13:17;;;;;;;;;3.75;2.75;;;;;22.12;50.66;101107.22;5079315;28;49574;-56
2022/10/25 04:15:42;;;;;;;;;2.25;2.25;;;;;22.12;50.51;101105.44;5082530;28;49549;-55
2022/10/25 04:18:07;;;;;;;;;3.25;2.00;;;;;22.12;50.54;101107.22;5076342;28;45314;-55
2022/10/25 04:20:33;;;;;;;;;2.50;1.25;;;;;22.09;50.50;101108.25;5076402;28;45314;-55
2022/10/25 04:22:58;;;;;;;;;3.00;2.00;;;;;22.09;50.51;101101.19;5079244;28;45476;-55
2022/10/25 04:25:25;;;;;;;;;4.00;2.00;;;;;22.08;50.63;101103.91;5084448;27;45263;-55
2022/10/25 04:27:51;;;;;;;;;2.00;2.00;;;;;22.08;50.32;101106.56;5076615;28;45457;-55
2022/10/25 04:30:16;;;;;;;;;2.00;2.00;;;;;22.04;50.30;101092.69;5077213;28;45215;-54
2022/10/25 04:32:41;;;;;;;;;2.25;2.00;;;;;22.05;50.12;101112.00;5080098;28;45409;-56
2022/10/25 04:35:07;;;;;;;;;4.75;4.75;;;;;22.04;50.23;101115.59;5080520;28;45684;-55
2022/10/25 04:37:33;;;;;;;;;5.00;4.00;;;;;22.02;50.81;101117.47;5088297;28;45459;-56
2022/10/25 04:39:58;;;;;;;;;5.00;5.00;;;;;22.02;50.41;101114.81;5089378;28;45247;-58
2022/10/25 04:42:23;;;;;;;;;4.50;4.50;;;;;22.01;50.51;101110.47;5086271;28;52162;-55
2022/10/25 04:44:49;;;;;;;;;3.50;2.25;;;;;22.00;50.48;101106.13;5084406;28;45463;-56
2022/10/25 04:47:14;;;;;;;;;4.25;2.75;;;;;21.99;50.54;101110.56;5079841;28;54488;-56
2022/10/25 04:49:39;;;;;;;;;2.50;2.50;;;;;21.98;50.74;101110.66;5079722;28;45849;-56
2022/10/25 04:52:05;;;;;;;;;2.25;2.25;;;;;21.97;50.53;101114.25;5079739;28;45379;-55
2022/10/25 04:54:30;;;;;;;;;3.00;3.00;;;;;21.95;50.68;101105.56;5080379;28;45512;-55
2022/10/25 04:56:55;;;;;;;;;4.25;3.00;;;;;21.93;50.90;101108.28;5079272;28;58469;-56
2022/10/25 04:59:20;;;;;;;;;3.25;2.50;;;;;21.93;51.09;101119.69;5079978;28;45201;-57
2022/10/25 05:01:46;;;;;;;;;7.25;3.75;;;;;21.91;51.25;101124.19;5079873;28;45443;-56
2022/10/25 05:04:11;;;;;;;;;6.00;3.00;;;;;21.90;51.39;101117.22;5062103;28;45458;-57
2022/10/25 05:06:36;;;;;;;;;3.75;3.75;;;;;21.92;51.78;101123.25;5079335;28;59748;-57
2022/10/25 05:09:03;;;;;;;;;3.00;3.00;;;;;21.91;52.05;101118.91;5080068;28;45354;-55
2022/10/25 05:11:28;;;;;;;;;4.50;3.25;;;;;21.91;52.58;101120.72;5082664;28;45458;-55
2022/10/25 05:13:54;;;;;;;;;4.75;3.00;;;;;21.89;52.49;101118.16;5082721;28;45365;-56
2022/10/25 05:16:23;;;;;;;;;4.00;3.25;;;;;21.90;52.83;101122.50;5082977;28;57711;-58
2022/10/25 05:18:50;;;;;;;;;3.00;2.25;;;;;21.91;52.94;101115.44;5079546;28;45646;-56
2022/10/25 05:21:17;;;;;;;;;5.00;2.75;;;;;21.91;52.70;101118.09;5094708;28;45108;-54
2022/10/25 05:23:42;;;;;;;;;4.75;3.75;;;;;21.90;52.81;101111.09;5089902;28;45598;-55
2022/10/25 05:26:13;;;;;;;;;4.50;3.00;;;;;21.89;52.98;101118.16;5081409;28;45489;-56
2022/10/25 05:28:41;;;;;;;;;3.75;3.00;;;;;21.89;52.60;101123.44;5081025;28;45752;-55
2022/10/25 05:31:09;;;;;;;;;2.25;2.00;;;;;21.88;52.59;101121.72;5080678;28;45393;-55
2022/10/25 05:33:34;;;;;;;;;2.75;2.75;;;;;21.86;52.65;101128.91;5081257;28;45333;-54
2022/10/25 05:36:01;;;;;;;;;5.00;4.00;;;;;21.85;52.66;101121.91;5085204;28;64089;-56
2022/10/25 05:38:28;;;;;;;;;4.00;3.00;;;;;21.84;52.77;101120.22;5085730;28;45173;-55
2022/10/25 05:40:58;;;;;;;;;3.75;3.75;;;;;21.84;52.58;101124.63;5084637;28;45349;-56
2022/10/25 05:43:24;;;;;;;;;3.25;3.00;;;;;21.81;52.24;101120.38;5098183;28;45318;-56
2022/10/25 05:45:50;;;;;;;;;6.50;4.00;;;;;21.81;52.57;101120.38;5099051;27;45392;-55
2022/10/25 05:48:16;;;;;;;;;5.00;2.00;;;;;21.81;52.17;101120.38;5099292;28;45008;-56
2022/10/25 05:50:41;;;;;;;;;4.75;2.00;;;;;21.80;52.49;101128.41;5085426;27;45165;-56
2022/10/25 05:53:06;;;;;;;;;3.25;3.25;;;;;21.80;52.47;101121.31;5080842;28;45243;-56
2022/10/25 05:55:35;;;;;;;;;2.25;2.25;;;;;21.79;52.38;101124.88;5080441;28;57575;-55
2022/10/25 05:58:01;;;;;;;;;2.50;2.50;;;;;21.77;52.44;101124.16;5090505;28;45359;-57
2022/10/25 06:00:26;;;;;;;;;5.50;4.00;;;;;21.75;52.57;101126.00;5090037;28;45461;-55
2022/10/25 06:02:51;;;;;;;;;5.25;2.00;;;;;21.76;52.36;101125.91;5079746;28;45308;-54
2022/10/25 06:05:16;;;;;;;;;4.50;2.00;;;;;21.74;52.42;101125.16;5081746;28;53014;-56
2022/10/25 06:07:42;;;;;;;;;4.25;2.00;;;;;21.74;52.39;101130.44;5085689;28;46982;-57
2022/10/25 06:10:08;;;;;;;;;2.25;2.25;;;;;21.73;52.18;101127.88;5080024;28;45389;-56
2022/10/25 06:12:33;;;;;;;;;7.00;3.00;;;;;21.72;52.26;101131.44;5079636;28;45548;-57
2022/10/25 06:14:59;;;;;;;;;3.00;1.00;;;;;21.70;52.17;101130.69;5078817;28;45433;-56
2022/10/25 06:17:24;;;;;;;;;3.75;2.25;;;;;21.69;52.46;101134.25;5079479;27;45416;-56
2022/10/25 06:19:49;;;;;;;;;7.25;3.25;;;;;21.67;52.06;101131.72;5079506;28;45411;-55
2022/10/25 06:22:15;;;;;;;;;3.25;2.25;;;;;21.67;52.28;101123.78;5080909;27;45409;-55
2022/10/25 06:24:40;;;;;;;;;2.75;2.75;;;;;21.66;52.31;101137.91;5083869;28;46406;-55
2022/10/25 06:27:05;;;;;;;;;4.25;4.00;;;;;21.65;51.78;101128.31;5080132;28;47814;-54
2022/10/25 06:29:31;;;;;;;;;3.00;2.00;;;;;21.65;52.15;101135.38;5079121;28;45304;-55
2022/10/25 06:31:56;;;;;;;;;5.00;2.25;;;;;21.64;52.35;101139.78;5078719;28;45210;-55
2022/10/25 06:34:21;;;;;;;;;4.75;3.00;;;;;21.66;52.24;101145.84;5084222;28;52923;-54
2022/10/25 06:36:47;;;;;;;;;4.50;2.00;;;;;21.65;52.37;101144.13;5082002;28;45619;-54
2022/10/25 06:39:12;;;;;;;;;3.00;3.00;;;;;21.66;52.28;101145.00;5078416;28;55365;-54
2022/10/25 06:41:37;;;;;;;;;3.33;2.67;;;;;21.67;52.43;101151.94;5079025;28;50480;-55
2022/10/25 06:44:03;;;;;;;;;5.75;3.75;;;;;21.66;52.64;101147.63;5077434;28;45348;-57
2022/10/25 06:46:31;;;;;;;;;5.00;3.00;;;;;21.67;52.34;101154.59;5078600;28;45291;-57
2022/10/25 06:48:58;;;;;;;;;3.75;3.00;;;;;21.67;52.24;101152.81;5077866;28;45425;-54
2022/10/25 06:51:25;;;;;;;;;3.00;2.50;;;;;21.67;52.31;101150.19;5079263;28;45431;-59
2022/10/25 06:53:54;;;;;;;;;4.00;3.00;;;;;21.67;52.18;101149.31;5076392;27;45481;-58
2022/10/25 06:56:19;;;;;;;;;7.50;5.00;;;;;21.68;52.28;101158.94;5065978;28;45793;-60
2022/10/25 06:58:45;;;;;;;;;3.25;2.25;;;;;21.68;52.12;101159.78;5063359;28;56999;-60
2022/10/25 07:01:13;;;;;;;;;3.00;3.00;;;;;21.70;52.35;101162.34;5066712;28;45517;-61
2022/10/25 07:03:40;;;;;;;;;2.50;1.75;;;;;21.70;52.41;101162.34;5069699;28;45342;-59
2022/10/25 07:06:08;;;;;;;;;3.75;3.75;;;;;21.70;52.43;101159.69;5057239;28;45436;-59
2022/10/25 07:08:34;;;;;;;;;4.25;2.75;;;;;21.71;52.13;101164.03;5056199;28;45512;-60
2022/10/25 07:11:00;;;;;;;;;6.25;3.25;;;;;21.69;52.09;101161.50;5056506;28;45450;-58
2022/10/25 07:13:25;;;;;;;;;3.75;2.25;;;;;21.70;52.25;101165.84;5056599;28;46505;-59
2022/10/25 07:15:51;;;;;;;;;4.00;3.00;;;;;21.71;52.05;101156.13;5055586;28;45390;-59
2022/10/25 07:18:16;;;;;;;;;3.00;2.00;;;;;21.72;52.34;101163.13;5070675;28;45467;-56
2022/10/25 07:20:47;;;;;;;;;4.00;3.75;;;;;21.71;52.26;101164.91;5064109;28;45393;-59
2022/10/25 07:23:13;;;;;;;;;3.50;2.50;;;;;21.72;52.10;101173.66;5057724;28;46229;-58
2022/10/25 07:25:38;;;;;;;;;2.50;2.00;;;;;21.69;51.74;101173.81;5059236;28;45228;-59
2022/10/25 07:28:04;;;;;;;;;3.75;2.75;;;;;21.71;52.14;101174.59;5057496;28;47460;-59
2022/10/25 07:30:29;;;;;;;;;2.00;2.00;;;;;21.70;51.84;101176.41;5062954;28;45523;-59
2022/10/25 07:32:54;;;;;;;;;2.00;2.00;;;;;21.68;51.94;101173.00;5060416;28;46283;-58
2022/10/25 07:35:20;;;;;;;;;3.75;3.75;;;;;21.67;51.79;101171.28;5057584;28;45707;-60
2022/10/25 07:37:45;;;;;;;;;3.00;1.75;;;;;21.68;51.90;101172.13;5057156;28;51571;-60
2022/10/25 07:40:11;;;;;;;;;4.25;2.00;;;;;21.69;51.76;101173.81;5062361;28;45375;-58
2022/10/25 07:42:36;;;;;;;;;3.25;2.00;;;;;21.67;51.80;101173.06;5068471;28;45346;-60
2022/10/25 07:45:01;;;;;;;;;3.25;2.00;;;;;21.67;51.83;101181.84;5068309;28;56828;-59
2022/10/25 07:47:26;;;;;;;;;5.25;4.00;;;;;21.68;51.54;101186.19;5072774;28;45537;-59
2022/10/25 07:49:52;;;;;;;;;3.25;3.00;;;;;21.66;51.76;101177.50;5066827;28;45299;-59
2022/10/25 07:52:18;;;;;;;;;4.75;3.25;;;;;21.66;51.64;101187.22;5063410;28;45959;-59
2022/10/25 07:54:44;;;;;;;;;3.25;2.25;;;;;21.65;51.55;101182.84;5065903;28;45744;-59
2022/10/25 07:57:10;;;;;;;;;2.00;2.00;;;;;21.67;51.75;101197.66;5066174;28;45524;-58
2022/10/25 07:59:35;;;;;;;;;2.50;2.50;;;;;21.67;51.50;101191.50;5064265;28;45420;-60
2022/10/25 08:02:00;;;;;;;;;5.50;3.00;;;;;21.66;51.60;101195.13;5057016;28;60754;-58
2022/10/25 08:04:28;;;;;;;;;3.75;2.50;;;;;21.65;51.53;101191.63;5057503;28;45398;-57
2022/10/25 08:06:53;;;;;;;;;1.75;1.75;;;;;21.66;51.74;101195.94;5061147;28;45401;-59
2022/10/25 08:09:18;;;;;;;;;8.00;2.75;;;;;21.67;51.80;101196.78;5060654;28;54028;-60
2022/10/25 08:11:43;;;;;;;;;2.00;2.00;;;;;21.67;51.73;101191.50;5060084;28;57386;-60
2022/10/25 08:14:09;;;;;;;;;5.00;3.00;;;;;21.67;51.69;101191.50;5060897;28;45429;-58
2022/10/25 08:16:34;;;;;;;;;2.00;2.00;;;;;21.68;51.28;101190.59;5061315;28;45875;-58
2022/10/25 08:18:59;;;;;;;;;4.50;3.25;;;;;21.68;51.65;101188.81;5060575;28;45309;-59
2022/10/25 08:21:25;;;;;;;;;2.75;2.00;;;;;21.68;51.46;101177.41;5060276;28;47553;-59
2022/10/25 08:23:50;;;;;;;;;2.00;2.00;;;;;21.68;51.34;101178.25;5059235;28;54537;-59
2022/10/25 08:26:15;;;;;;;;;2.33;2.00;;;;;21.68;51.65;101173.00;5070068;28;53663;-57
2022/10/25 08:28:41;;;;;;;;;5.25;2.50;;;;;21.69;51.63;101165.91;5071855;28;44997;-59
2022/10/25 08:31:07;;;;;;;;;3.25;1.25;;;;;21.68;51.23;101167.72;5067073;28;46116;-59
2022/10/25 08:33:33;;;;;;;;;4.25;1.50;;;;;21.69;51.42;101179.09;5064114;28;45435;-58
2022/10/25 08:36:00;;;;;;;;;4.75;2.00;;;;;21.70;51.22;101183.44;5059738;28;45402;-59
2022/10/25 08:38:25;;;;;;;;;2.00;2.00;;;;;21.70;51.29;101183.44;5075300;28;45575;-58
2022/10/25 08:41:16;;;;;;;;;2.00;2.00;;;;;21.71;51.37;101177.22;5067254;28;63140;-60
2022/10/25 08:43:50;;;;;;;;;3.50;2.50;;;;;21.72;51.45;101168.38;5073290;28;45695;-58
2022/10/25 08:46:19;;;;;;;;;4.50;2.00;;;;;21.71;51.31;101171.97;5062057;28;45268;-54
2022/10/25 08:48:50;;;;;;;;;2.00;2.00;;;;;21.72;51.22;101174.50;5061651;28;45555;-57
2022/10/25 08:51:18;;;;;;;;;2.00;2.00;;;;;21.73;51.41;101170.09;5063870;28;46172;-57
2022/10/25 08:53:48;;;;;;;;;2.25;2.00;;;;;21.74;51.42;101169.16;5081321;28;45333;-58
2022/10/25 08:56:17;;;;;;;;;6.00;3.00;;;;;21.73;51.28;101159.53;5084800;28;45275;-59
2022/10/25 08:58:49;;;;;;;;;3.00;1.50;;;;;21.74;51.32;101162.09;5080064;28;45647;-57
2022/10/25 09:01:21;;;;;;;;;2.00;2.00;;;;;21.77;51.13;101175.09;5079575;28;45417;-55
2022/10/25 09:03:46;;;;;;;;;2.00;2.00;;;;;21.77;51.12;101172.47;5079661;28;45774;-58
2022/10/25 09:06:40;;;;;;;;;3.00;2.00;;;;;21.78;51.15;101174.19;5079840;28;45429;-57
2022/10/25 09:09:05;;;;;;;;;3.00;2.25;;;;;21.80;51.08;101171.44;5080136;28;45329;-55
2022/10/25 09:11:49;;;;;;;;;3.00;1.33;;;;;21.82;50.82;101185.41;5079424;28;46678;-57
2022/10/25 09:14:39;;;;;;;;;5.00;2.00;;;;;21.81;51.11;101175.78;5079221;28;45444;-57
2022/10/25 09:17:21;;;;;;;;;4.75;2.25;;;;;21.83;51.18;101166.00;5079278;28;45638;-57
2022/10/25 09:20:01;;;;;;;;;1.75;1.75;;;;;21.84;51.10;101170.34;5079827;28;45252;-56
2022/10/25 09:22:29;;;;;;;;;4.50;2.00;;;;;21.85;51.02;101164.13;5063088;28;46952;-56
2022/10/25 09:25:00;;;;;;;;;4.75;2.00;;;;;21.87;50.96;101159.63;5062010;28;45709;-55
2022/10/25 09:27:45;;;;;;;;;4.00;3.00;;;;;21.89;50.82;101165.66;5058577;28;45692;-57
2022/10/25 09:30:12;;;;;;;;;2.50;2.00;;;;;21.90;51.44;101156.81;5048465;28;46187;-61
2022/10/25 09:32:51;;;;;;;;;3.00;1.00;;;;;21.90;50.88;101161.25;5058717;28;47153;-60
2022/10/25 09:35:19;;;;;;;;;1.00;1.00;;;;;21.91;50.79;101171.69;5058184;28;45402;-61
2022/10/25 09:37:48;;;;;;;;;4.00;2.00;;;;;21.92;50.75;101173.41;5058195;28;45227;-58
2022/10/25 09:40:28;;;;;;;;;3.00;2.00;;;;;21.93;50.32;101166.34;5059557;28;45417;-58
2022/10/25 09:43:03;;;;;;;;;3.00;1.25;;;;;21.93;50.59;101156.63;5058703;28;46326;-63
2022/10/25 09:45:39;;;;;;;;;1.75;1.75;;;;;21.93;50.73;101155.81;5058943;28;45244;-60
2022/10/25 09:48:14;;;;;;;;;2.75;2.25;;;;;21.92;50.95;101144.38;5057934;28;45779;-60
2022/10/25 09:50:45;;;;;;;;;2.00;1.75;;;;;21.92;50.53;101154.94;5064967;28;45234;-59
2022/10/25 09:53:17;;;;;;;;;3.00;1.00;;;;;21.91;50.66;101158.50;5062541;28;46626;-60
2022/10/25 09:55:57;;;;;;;;;2.25;2.00;;;;;21.92;50.66;101160.22;5059101;28;45497;-60
2022/10/25 09:58:25;;;;;;;;;2.00;2.00;;;;;21.91;50.81;101169.06;5065944;28;45366;-59
2022/10/25 10:00:54;;;;;;;;;2.00;2.00;;;;;21.92;50.71;101165.50;5058633;28;45575;-57
2022/10/25 10:03:21;;;;;;;;;2.25;2.00;;;;;21.92;50.76;101157.56;5059096;28;46447;-60
2022/10/25 10:05:56;;;;;;;;;4.00;2.75;;;;;21.92;50.64;101162.84;5057715;28;45649;-59
2022/10/25 10:08:24;;;;;;;;;1.00;1.00;;;;;21.92;50.78;101157.56;5062874;28;45219;-61
2022/10/25 10:10:52;;;;;;;;;4.00;2.00;;;;;21.94;50.90;101146.91;5066067;28;45225;-60
2022/10/25 10:13:42;;;;;;;;;2.50;2.50;;;;;21.95;50.63;101147.78;5065823;28;46161;-59
2022/10/25 10:16:17;;;;;;;;;3.00;2.00;;;;;21.93;50.78;101146.09;5069579;28;45689;-58
2022/10/25 10:18:43;;;;;;;;;2.00;2.00;;;;;21.95;50.85;101150.41;5065783;28;45312;-59
2022/10/25 10:21:08;;;;;;;;;0.00;0.00;;;;;21.93;50.83;101146.09;5067130;28;45243;-57
2022/10/25 10:23:47;;;;;;;;;3.67;1.00;;;;;21.93;50.79;101146.09;5065431;28;45266;-60
2022/10/25 10:26:22;;;;;;;;;0.50;0.25;;;;;21.95;50.81;101150.41;5087798;28;45768;-58
2022/10/25 10:28:50;;;;;;;;;4.00;2.25;;;;;21.95;50.51;101148.63;5085212;28;45411;-59
2022/10/25 10:31:18;;;;;;;;;2.75;2.00;;;;;21.95;50.85;101143.34;5086756;27;45599;-62
2022/10/25 10:33:50;;;;;;;;;1.50;1.50;;;;;21.96;50.80;101150.31;5085499;28;46349;-60
2022/10/25 10:36:22;;;;;;;;;1.00;1.00;;;;;21.98;50.87;101152.91;5081229;28;45512;-62
2022/10/25 10:38:48;;;;;;;;;1.75;1.75;;;;;21.98;50.76;101148.44;5078770;28;45395;-59
2022/10/25 10:41:26;;;;;;;;;1.00;1.00;;;;;21.97;50.48;101146.75;5080488;28;45423;-61
2022/10/25 10:44:07;;;;;;;;;1.25;1.25;;;;;21.96;50.74;101149.50;5079362;28;46284;-61
2022/10/25 10:46:33;;;;;;;;;1.00;1.00;;;;;21.95;50.98;101140.69;5084530;28;45350;-62
2022/10/25 10:49:01;;;;;;;;;0.00;0.00;;;;;21.95;50.76;101140.69;5082019;28;45265;-62
2022/10/25 10:51:42;;;;;;;;;2.00;2.00;;;;;21.93;50.61;101130.25;5078829;28;45448;-61
2022/10/25 10:54:26;;;;;;;;;1.75;1.75;;;;;21.95;50.71;101137.22;5078722;27;45492;-59
2022/10/25 10:56:53;;;;;;;;;3.00;1.50;;;;;21.93;50.50;101135.53;5078043;28;45694;-58
2022/10/25 10:59:29;;;;;;;;;1.50;1.50;;;;;21.91;50.40;101126.84;5079161;28;45464;-61
2022/10/25 11:01:55;;;;;;;;;3.25;2.25;;;;;21.90;50.38;101127.78;5079133;28;45345;-59
2022/10/25 11:04:21;;;;;;;;;2.00;2.00;;;;;21.86;50.51;101121.00;5079137;28;45444;-61
2022/10/25 11:06:46;;;;;;;;;3.00;2.00;;;;;21.84;50.75;101116.72;5087626;28;45282;-60
2022/10/25 11:09:11;;;;;;;;;1.00;1.00;;;;;21.85;50.98;101102.59;5085993;27;46301;-60
2022/10/25 11:11:38;;;;;;;;;3.00;2.00;;;;;21.83;50.52;101113.22;5079029;28;45234;-61
2022/10/25 11:14:11;;;;;;;;;4.75;1.00;;;;;21.82;50.37;101111.53;5077710;28;46267;-62
2022/10/25 11:17:31;;;;;;;;;2.00;2.00;;;;;21.81;50.56;101115.09;5088267;27;45216;-61
2022/10/25 11:20:29;;;;;;;;;2.00;2.00;;;;;21.81;50.80;101109.81;5040894;28;45341;-62
2022/10/25 11:23:18;;;;;;;;;2.00;1.75;;;;;21.79;50.53;101111.69;5083543;27;45397;-59
2022/10/25 11:25:52;;;;;;;;;4.00;3.00;;;;;21.78;50.82;101099.44;5082635;28;47419;-60
2022/10/25 11:28:27;;;;;;;;;2.75;2.00;;;;;21.78;50.66;101097.66;5083088;27;45715;-60
2022/10/25 11:30:58;;;;;;;;;2.00;1.75;;;;;21.79;50.96;101095.88;5077404;28;45323;-59
2022/10/25 11:33:23;;;;;;;;;2.75;1.50;;;;;21.78;51.05;101095.03;5078047;28;45401;-61
2022/10/25 11:36:07;;;;;;;;;3.00;2.00;;;;;21.80;50.62;101094.09;5077806;28;45451;-61